Time;durP1;ratioP1;P1;durP2;ratioP2;P2;SDS_P1;SDS_P2;PMS_P1;PMS_P2;Temp;Humidity;BMP_temperature;BMP_pressure;BME280_temperature;BME280_humidity;BME280_pressure;Samples;Min_cycle;Max_cycle;Signal;HPM_P1;HPM_P2
2021/12/04 00:01:06;;;;;;;;;;;;;;;;;;6240984;28;20469;-83
2021/12/04 00:04:06;;;;;;;25.90;10.10;;;;;;;;;;6243374;28;20395;-83
2021/12/04 00:07:07;;;;;;;22.13;9.55;;;;;;;;;;6244504;28;20100;-82
2021/12/04 00:10:08;;;;;;;22.00;9.40;;;;;;;;;;6250426;28;20014;-82
2021/12/04 00:13:08;;;;;;;22.85;11.10;;;;;;;;;;6246149;28;20044;-82
2021/12/04 00:16:09;;;;;;;26.75;9.65;;;;;;;;;;6245476;28;20043;-82
2021/12/04 00:19:09;;;;;;;34.05;13.38;;;;;;;;;;6259481;28;20021;-82
2021/12/04 00:22:09;;;;;;;28.42;12.25;;;;;;;;;;6244722;28;20014;-83
2021/12/04 00:25:10;;;;;;;34.35;14.75;;;;;;;;;;6239014;28;20140;-83
2021/12/04 00:28:10;;;;;;;32.05;12.52;;;;;;;;;;6245451;28;20018;-83
2021/12/04 00:31:12;;;;;;;37.00;13.25;;;;;;;;;;6237936;28;20014;-82
2021/12/04 00:34:12;;;;;;;38.65;14.35;;;;;;;;;;6244417;28;20520;-83
2021/12/04 00:37:48;;;;;;;34.38;12.48;;;;;;;;;;6240267;28;20029;-83
2021/12/04 00:50:26;;;;;;;43.03;13.68;;;;;;;;;;6245612;28;20057;-83
2021/12/04 00:53:26;;;;;;;36.88;14.02;;;;;;;;;;6256220;28;20013;-83
2021/12/04 00:56:27;;;;;;;29.15;12.70;;;;;;;;;;6239490;28;20060;-82
2021/12/04 00:59:28;;;;;;;33.08;12.93;;;;;;;;;;6235616;28;20022;-82
2021/12/04 01:02:28;;;;;;;28.83;11.77;;;;;;;;;;6257852;28;20435;-83
2021/12/04 01:05:28;;;;;;;28.50;11.30;;;;;;;;;;6240556;28;20469;-83
2021/12/04 01:08:29;;;;;;;21.60;10.57;;;;;;;;;;6239847;28;20052;-83
2021/12/04 01:11:29;;;;;;;19.85;9.85;;;;;;;;;;6243023;28;20018;-83
2021/12/04 01:14:31;;;;;;;28.48;12.35;;;;;;;;;;6235573;28;20021;-83
2021/12/04 01:17:32;;;;;;;25.88;11.60;;;;;;;;;;6229882;28;20417;-83
2021/12/04 01:20:32;;;;;;;28.90;11.57;;;;;;;;;;6241557;28;20025;-83
2021/12/04 01:23:32;;;;;;;22.42;9.77;;;;;;;;;;6238281;28;20034;-83
2021/12/04 01:26:32;;;;;;;25.42;11.63;;;;;;;;;;6242916;28;20028;-83
2021/12/04 01:29:33;;;;;;;25.88;10.40;;;;;;;;;;6237096;28;20378;-83
2021/12/04 01:32:33;;;;;;;23.75;10.07;;;;;;;;;;6239342;28;20440;-83
2021/12/04 01:35:33;;;;;;;22.52;9.60;;;;;;;;;;6239319;28;20104;-82
2021/12/04 01:38:34;;;;;;;22.80;10.68;;;;;;;;;;6243840;28;20397;-83
2021/12/04 01:41:34;;;;;;;30.17;10.23;;;;;;;;;;6236670;28;20017;-83
2021/12/04 01:44:34;;;;;;;23.85;8.75;;;;;;;;;;6239756;28;20051;-83
2021/12/04 01:47:35;;;;;;;30.92;11.27;;;;;;;;;;6252224;28;20132;-83
2021/12/04 01:50:35;;;;;;;19.75;9.32;;;;;;;;;;6234141;28;20061;-83
2021/12/04 01:53:36;;;;;;;27.92;11.27;;;;;;;;;;6238509;28;20021;-83
2021/12/04 01:56:36;;;;;;;22.90;10.18;;;;;;;;;;6236931;28;20292;-82
2021/12/04 01:59:36;;;;;;;28.20;10.98;;;;;;;;;;6234701;28;20017;-83
2021/12/04 02:02:38;;;;;;;19.75;10.25;;;;;;;;;;6236496;28;20025;-82
2021/12/04 02:05:40;;;;;;;20.27;9.60;;;;;;;;;;6235351;28;20027;-82
2021/12/04 02:08:42;;;;;;;22.30;9.60;;;;;;;;;;6238262;28;20021;-83
2021/12/04 02:11:42;;;;;;;20.55;10.13;;;;;;;;;;6239387;28;20017;-83
2021/12/04 02:14:42;;;;;;;27.65;10.15;;;;;;;;;;6242944;28;20021;-83
2021/12/04 02:17:46;;;;;;;21.98;10.57;;;;;;;;;;6232986;28;20493;-82
2021/12/04 02:20:46;;;;;;;22.15;8.85;;;;;;;;;;6239030;28;20576;-82
2021/12/04 02:23:47;;;;;;;20.15;9.18;;;;;;;;;;6236254;28;20009;-82
2021/12/04 02:26:48;;;;;;;26.25;9.70;;;;;;;;;;6240286;28;20022;-82
2021/12/04 02:29:49;;;;;;;20.27;9.63;;;;;;;;;;6234120;28;20081;-82
2021/12/04 02:32:49;;;;;;;25.00;10.00;;;;;;;;;;6237805;28;20024;-82
2021/12/04 02:35:51;;;;;;;20.45;8.52;;;;;;;;;;6241781;28;20037;-82
2021/12/04 02:38:52;;;;;;;25.25;10.25;;;;;;;;;;6237372;28;20017;-82
2021/12/04 02:41:53;;;;;;;24.40;11.77;;;;;;;;;;6236405;28;20016;-82
2021/12/04 02:44:54;;;;;;;50.55;17.40;;;;;;;;;;6232498;28;20009;-82
2021/12/04 02:47:54;;;;;;;24.20;11.10;;;;;;;;;;6238250;28;20036;-82
2021/12/04 02:50:55;;;;;;;28.02;11.55;;;;;;;;;;6239449;28;20064;-82
2021/12/04 02:53:55;;;;;;;25.35;10.77;;;;;;;;;;6236827;28;20044;-83
2021/12/04 02:56:55;;;;;;;26.42;12.82;;;;;;;;;;6240883;28;20028;-83
2021/12/04 02:59:56;;;;;;;19.90;8.10;;;;;;;;;;6231872;28;20034;-82
2021/12/04 03:02:57;;;;;;;23.08;9.90;;;;;;;;;;6237784;28;20400;-82
2021/12/04 03:05:58;;;;;;;18.80;8.38;;;;;;;;;;6239428;28;20013;-83
2021/12/04 03:08:58;;;;;;;24.93;9.87;;;;;;;;;;6239561;28;20105;-83
2021/12/04 03:12:01;;;;;;;19.92;9.60;;;;;;;;;;6240721;28;20268;-83
2021/12/04 03:15:01;;;;;;;17.92;8.75;;;;;;;;;;6238336;28;20026;-83
2021/12/04 03:18:01;;;;;;;17.08;8.25;;;;;;;;;;6235285;28;20064;-83
2021/12/04 03:21:04;;;;;;;20.02;9.60;;;;;;;;;;6236956;28;20504;-82
2021/12/04 03:24:07;;;;;;;16.98;8.57;;;;;;;;;;6237014;28;20017;-82
2021/12/04 03:27:08;;;;;;;17.40;8.30;;;;;;;;;;6235271;28;20125;-82
2021/12/04 03:30:18;;;;;;;17.95;8.18;;;;;;;;;;6238738;28;20453;-82
2021/12/04 03:43:15;;;;;;;20.33;9.02;;;;;;;;;;6237906;28;20377;-82
2021/12/04 03:46:16;;;;;;;14.50;8.18;;;;;;;;;;6248662;28;20429;-82
2021/12/04 03:49:17;;;;;;;18.37;8.30;;;;;;;;;;6235532;28;20038;-82
2021/12/04 03:52:17;;;;;;;20.73;8.95;;;;;;;;;;6237993;28;20128;-82
2021/12/04 03:55:17;;;;;;;22.48;9.77;;;;;;;;;;6236704;28;20049;-82
2021/12/04 03:58:18;;;;;;;22.52;10.07;;;;;;;;;;6235482;28;20021;-83
2021/12/04 04:01:19;;;;;;;24.98;11.00;;;;;;;;;;6238067;28;20021;-82
2021/12/04 04:04:19;;;;;;;18.92;9.63;;;;;;;;;;6237190;28;20483;-82
2021/12/04 04:07:19;;;;;;;19.40;8.60;;;;;;;;;;6233721;28;20124;-82
2021/12/04 04:10:21;;;;;;;19.85;9.02;;;;;;;;;;6239587;28;20448;-82
2021/12/04 04:13:21;;;;;;;18.05;8.65;;;;;;;;;;6241322;28;20027;-82
2021/12/04 04:16:22;;;;;;;23.98;9.32;;;;;;;;;;6240025;28;20411;-82
2021/12/04 04:19:23;;;;;;;26.23;9.43;;;;;;;;;;6237895;28;20444;-82
2021/12/04 04:22:23;;;;;;;26.98;9.55;;;;;;;;;;6241143;28;20381;-83
2021/12/04 04:25:24;;;;;;;24.80;10.38;;;;;;;;;;6244123;28;20017;-82
2021/12/04 04:28:24;;;;;;;21.05;9.52;;;;;;;;;;6240036;28;20144;-82
2021/12/04 04:31:24;;;;;;;19.02;9.05;;;;;;;;;;6240714;28;20064;-82
2021/12/04 04:34:29;;;;;;;16.90;7.80;;;;;;;;;;6245667;28;20041;-83
2021/12/04 04:37:40;;;;;;;25.67;10.52;;;;;;;;;;6246011;28;20017;-83
2021/12/04 05:13:51;;;;;;;15.55;7.40;;;;;;;;;;6238967;28;20100;-82
2021/12/04 05:16:59;;;;;;;17.02;8.23;;;;;;;;;;6238292;28;20013;-82
2021/12/04 05:19:59;;;;;;;11.65;7.22;;;;;;;;;;6256903;28;20026;-82
2021/12/04 05:23:00;;;;;;;10.70;4.82;;;;;;;;;;6241655;28;20659;-82
2021/12/04 05:26:01;;;;;;;14.07;7.13;;;;;;;;;;6242310;28;20347;-82
2021/12/04 05:29:02;;;;;;;20.27;8.47;;;;;;;;;;6239294;28;20021;-82
2021/12/04 05:32:03;;;;;;;19.67;10.02;;;;;;;;;;6238531;28;20033;-82
2021/12/04 05:35:04;;;;;;;17.00;7.40;;;;;;;;;;6244609;28;20022;-82
2021/12/04 05:38:04;;;;;;;17.85;8.57;;;;;;;;;;6254031;28;20036;-82
2021/12/04 05:41:05;;;;;;;18.23;6.50;;;;;;;;;;6242182;28;20026;-82
2021/12/04 05:44:07;;;;;;;16.80;7.63;;;;;;;;;;6239696;28;20421;-83
2021/12/04 05:47:24;;;;;;;12.80;6.57;;;;;;;;;;6238001;28;20064;-83
2021/12/04 05:50:58;;;;;;;11.48;4.68;;;;;;;;;;6227765;28;20076;-82
2021/12/04 05:54:18;;;;;;;18.42;8.88;;;;;;;;;;6232032;28;20021;-82
2021/12/04 05:57:18;;;;;;;25.95;11.63;;;;;;;;;;6232041;28;20030;-82
2021/12/04 06:00:20;;;;;;;22.77;8.70;;;;;;;;;;6234492;28;20382;-82
2021/12/04 06:03:21;;;;;;;19.50;10.10;;;;;;;;;;6238610;28;20031;-82
2021/12/04 06:06:21;;;;;;;25.52;9.85;;;;;;;;;;6233605;28;20022;-82
2021/12/04 06:09:22;;;;;;;17.60;9.23;;;;;;;;;;6238459;28;20112;-82
2021/12/04 06:12:22;;;;;;;74.18;28.35;;;;;;;;;;6238079;28;20019;-82
2021/12/04 06:15:22;;;;;;;194.32;73.32;;;;;;;;;;6228163;28;20029;-82
2021/12/04 06:18:23;;;;;;;112.60;42.88;;;;;;;;;;6228288;28;20478;-82
2021/12/04 06:24:43;;;;;;;63.08;23.15;;;;;;;;;;6240031;28;20026;-82
2021/12/04 06:27:44;;;;;;;54.30;18.35;;;;;;;;;;6236316;28;20017;-82
2021/12/04 06:30:44;;;;;;;42.58;15.50;;;;;;;;;;6239905;28;20024;-82
2021/12/04 06:33:44;;;;;;;191.10;66.00;;;;;;;;;;6237835;28;20145;-82
2021/12/04 06:36:44;;;;;;;162.93;56.70;;;;;;;;;;6237301;28;20022;-82
2021/12/04 06:39:45;;;;;;;92.85;36.35;;;;;;;;;;6241135;28;20091;-82
2021/12/04 06:42:45;;;;;;;65.07;23.58;;;;;;;;;;6241613;28;20017;-82
2021/12/04 06:45:55;;;;;;;66.28;24.70;;;;;;;;;;6250606;28;20045;-82
2021/12/04 06:52:02;;;;;;;27.08;12.77;;;;;;;;;;6236655;28;20078;-82
2021/12/04 06:55:03;;;;;;;24.10;10.88;;;;;;;;;;6237567;28;20539;-82
2021/12/04 06:58:03;;;;;;;18.60;9.10;;;;;;;;;;6242452;28;20021;-82
2021/12/04 07:01:05;;;;;;;23.65;10.15;;;;;;;;;;6239944;28;20013;-82
2021/12/04 07:04:06;;;;;;;20.40;10.73;;;;;;;;;;6241135;28;20487;-82
2021/12/04 07:07:10;;;;;;;20.23;10.93;;;;;;;;;;6237253;28;20006;-82
2021/12/04 07:10:10;;;;;;;16.60;9.27;;;;;;;;;;6229784;28;20477;-82
2021/12/04 07:13:10;;;;;;;23.15;9.48;;;;;;;;;;6227840;28;20064;-82
2021/12/04 07:16:13;;;;;;;24.85;11.68;;;;;;;;;;6227070;28;20049;-82
2021/12/04 07:19:14;;;;;;;20.80;10.50;;;;;;;;;;6232694;28;20040;-82
2021/12/04 07:22:14;;;;;;;19.23;9.15;;;;;;;;;;6222467;28;20021;-82
2021/12/04 07:25:15;;;;;;;23.60;9.82;;;;;;;;;;6231337;28;20029;-82
2021/12/04 07:28:15;;;;;;;17.67;8.95;;;;;;;;;;6220766;28;20071;-82
2021/12/04 07:31:15;;;;;;;27.48;12.30;;;;;;;;;;6221750;28;20021;-82
2021/12/04 07:34:16;;;;;;;23.45;12.25;;;;;;;;;;6243588;28;20123;-82
2021/12/04 07:37:16;;;;;;;30.42;14.57;;;;;;;;;;6226436;28;20032;-82
2021/12/04 07:40:16;;;;;;;50.88;23.20;;;;;;;;;;6225180;28;20025;-82
2021/12/04 07:43:17;;;;;;;56.03;26.35;;;;;;;;;;6233081;28;20021;-82
2021/12/04 07:46:17;;;;;;;68.75;32.08;;;;;;;;;;6228324;28;20014;-82
2021/12/04 07:49:17;;;;;;;76.10;31.27;;;;;;;;;;6229283;28;20045;-82
2021/12/04 07:52:18;;;;;;;65.85;32.88;;;;;;;;;;6247861;28;20017;-82
2021/12/04 07:55:18;;;;;;;63.63;28.70;;;;;;;;;;6227278;28;20010;-82
2021/12/04 07:58:18;;;;;;;61.47;31.88;;;;;;;;;;6235716;28;20020;-82
2021/12/04 08:01:18;;;;;;;49.47;23.38;;;;;;;;;;6246913;28;20021;-82
2021/12/04 08:04:19;;;;;;;47.03;23.17;;;;;;;;;;6239531;28;20079;-82
2021/12/04 08:07:19;;;;;;;42.92;19.17;;;;;;;;;;6243596;28;20136;-82
2021/12/04 08:10:19;;;;;;;31.23;16.73;;;;;;;;;;6245493;28;20033;-82
2021/12/04 08:13:20;;;;;;;28.98;17.17;;;;;;;;;;6241877;28;20024;-82
2021/12/04 08:16:24;;;;;;;36.25;15.68;;;;;;;;;;6244429;28;20033;-82
2021/12/04 08:19:24;;;;;;;37.10;17.25;;;;;;;;;;6240432;28;20052;-82
2021/12/04 08:22:25;;;;;;;46.88;19.02;;;;;;;;;;6244762;28;20022;-82
2021/12/04 08:25:26;;;;;;;36.67;18.73;;;;;;;;;;6243095;28;20390;-82
2021/12/04 08:28:26;;;;;;;42.80;17.17;;;;;;;;;;6231713;28;20104;-83
2021/12/04 08:31:26;;;;;;;48.85;24.45;;;;;;;;;;6231692;28;20018;-83
2021/12/04 08:34:27;;;;;;;60.80;24.48;;;;;;;;;;6236511;28;20028;-84
2021/12/04 08:37:27;;;;;;;41.15;15.75;;;;;;;;;;6235568;28;20688;-84
2021/12/04 08:40:29;;;;;;;33.22;16.20;;;;;;;;;;6235039;28;20730;-84
2021/12/04 08:43:29;;;;;;;34.58;16.33;;;;;;;;;;6235010;28;20422;-84
2021/12/04 08:46:31;;;;;;;29.20;12.48;;;;;;;;;;6235988;28;20033;-85
2021/12/04 08:49:32;;;;;;;15.80;7.90;;;;;;;;;;6229697;28;20339;-85
2021/12/04 08:52:33;;;;;;;25.30;12.43;;;;;;;;;;6234203;28;20405;-85
2021/12/04 08:55:35;;;;;;;21.90;7.68;;;;;;;;;;6237916;28;20025;-85
2021/12/04 08:58:39;;;;;;;18.80;6.65;;;;;;;;;;6234273;28;20029;-86
2021/12/04 09:01:41;;;;;;;18.13;7.88;;;;;;;;;;6233714;28;20021;-85
2021/12/04 09:04:41;;;;;;;19.20;7.43;;;;;;;;;;6235944;28;20109;-85
2021/12/04 09:07:42;;;;;;;13.45;6.03;;;;;;;;;;6234817;28;20022;-85
2021/12/04 09:10:43;;;;;;;16.00;7.13;;;;;;;;;;6249209;28;20029;-85
2021/12/04 09:13:43;;;;;;;16.05;8.55;;;;;;;;;;6231889;28;20450;-86
2021/12/04 09:16:44;;;;;;;13.18;6.85;;;;;;;;;;6239638;28;20075;-85
2021/12/04 09:19:44;;;;;;;17.50;6.00;;;;;;;;;;6244678;28;20030;-85
2021/12/04 09:22:45;;;;;;;15.95;7.10;;;;;;;;;;6236999;28;20024;-86
2021/12/04 09:25:51;;;;;;;9.15;4.55;;;;;;;;;;6237335;28;20022;-85
2021/12/04 09:29:07;;;;;;;14.23;6.00;;;;;;;;;;6230249;28;20093;-85
2021/12/04 10:18:23;;;;;;;11.35;6.30;;;;;;;;;;6231949;28;20673;-88
2021/12/04 10:21:45;;;;;;;9.23;2.80;;;;;;;;;;6230038;28;20041;-88
2021/12/04 10:25:01;;;;;;;10.98;5.22;;;;;;;;;;6229262;28;20030;-88
2021/12/04 10:34:54;;;;;;;11.20;4.78;;;;;;;;;;6236971;28;20042;-89
2021/12/04 10:38:01;;;;;;;12.48;6.35;;;;;;;;;;6241284;28;20112;-89
2021/12/04 10:41:01;;;;;;;10.57;4.25;;;;;;;;;;6242834;28;20025;-89
2021/12/04 10:44:28;;;;;;;12.73;5.50;;;;;;;;;;6237504;28;20393;-89
2021/12/04 10:47:28;;;;;;;11.98;6.03;;;;;;;;;;6243322;28;20398;-88
2021/12/04 10:53:38;;;;;;;8.57;4.03;;;;;;;;;;6239305;28;20579;-88
2021/12/04 11:20:13;;;;;;;13.32;4.90;;;;;;;;;;6234410;28;20026;-88
2021/12/04 11:23:39;;;;;;;9.88;4.97;;;;;;;;;;6234708;28;20088;-88
2021/12/04 11:36:18;;;;;;;15.35;5.50;;;;;;;;;;6232107;28;20030;-88
2021/12/04 11:42:57;;;;;;;17.00;4.65;;;;;;;;;;6234984;28;20022;-88
2021/12/04 11:49:07;;;;;;;11.02;5.15;;;;;;;;;;6236603;28;20061;-87
2021/12/04 11:52:14;;;;;;;7.55;4.32;;;;;;;;;;6235593;28;20036;-88
2021/12/04 11:55:15;;;;;;;8.80;4.57;;;;;;;;;;6232699;28;20479;-87
2021/12/04 11:58:20;;;;;;;9.65;3.80;;;;;;;;;;6239983;28;20029;-88
2021/12/04 12:01:27;;;;;;;13.80;4.03;;;;;;;;;;6236383;28;20449;-88
2021/12/04 12:04:33;;;;;;;9.25;3.65;;;;;;;;;;6239852;28;20021;-88
2021/12/04 12:07:33;;;;;;;6.53;4.03;;;;;;;;;;6229615;28;20014;-88
2021/12/04 12:10:45;;;;;;;12.05;3.85;;;;;;;;;;6234007;28;20026;-87
2021/12/04 12:13:49;;;;;;;5.93;3.33;;;;;;;;;;6241698;28;20102;-87
2021/12/04 12:16:52;;;;;;;9.57;4.32;;;;;;;;;;6237460;28;20583;-88
2021/12/04 12:19:52;;;;;;;4.85;2.47;;;;;;;;;;6234135;28;20020;-88
2021/12/04 12:23:01;;;;;;;5.90;3.70;;;;;;;;;;6238243;28;20010;-88
2021/12/04 12:26:10;;;;;;;11.82;5.03;;;;;;;;;;6243039;28;20761;-88
2021/12/04 12:33:03;;;;;;;8.15;4.07;;;;;;;;;;6247973;28;20041;-88
2021/12/04 12:36:13;;;;;;;12.80;5.47;;;;;;;;;;6243125;28;20442;-88
2021/12/04 12:39:15;;;;;;;12.43;6.55;;;;;;;;;;6239869;28;20670;-88
2021/12/04 12:42:26;;;;;;;8.68;4.22;;;;;;;;;;6233638;28;20083;-88
2021/12/04 12:45:34;;;;;;;14.23;5.65;;;;;;;;;;6239426;28;20052;-88
2021/12/04 12:48:52;;;;;;;9.95;3.47;;;;;;;;;;6241281;28;20022;-88
2021/12/04 12:51:54;;;;;;;10.13;5.30;;;;;;;;;;6234315;28;20025;-88
2021/12/04 12:55:06;;;;;;;13.85;6.50;;;;;;;;;;6236422;28;20393;-87
2021/12/04 12:58:19;;;;;;;7.60;3.37;;;;;;;;;;6231436;28;20029;-88
2021/12/04 13:14:41;;;;;;;21.48;8.30;;;;;;;;;;6236488;28;20026;-88
2021/12/04 13:17:42;;;;;;;19.52;7.22;;;;;;;;;;6239787;28;20076;-88
2021/12/04 13:20:43;;;;;;;35.00;16.40;;;;;;;;;;6239094;28;20017;-88
2021/12/04 13:23:48;;;;;;;37.67;16.70;;;;;;;;;;6240056;28;20009;-88
2021/12/04 13:26:50;;;;;;;21.42;8.90;;;;;;;;;;6241177;28;20021;-88
2021/12/04 13:29:52;;;;;;;17.30;9.55;;;;;;;;;;6244637;28;20029;-88
2021/12/04 13:32:52;;;;;;;16.85;9.15;;;;;;;;;;6241749;28;20041;-88
2021/12/04 13:35:53;;;;;;;20.33;7.90;;;;;;;;;;6235879;28;20017;-88
2021/12/04 13:38:57;;;;;;;24.08;8.32;;;;;;;;;;6242627;28;20063;-88
2021/12/04 13:41:58;;;;;;;14.75;6.45;;;;;;;;;;6240335;28;20014;-87
2021/12/04 13:45:00;;;;;;;12.20;4.47;;;;;;;;;;6235103;28;20040;-88
2021/12/04 13:48:00;;;;;;;14.40;6.60;;;;;;;;;;6241292;28;20097;-88
2021/12/04 13:51:01;;;;;;;19.98;9.75;;;;;;;;;;6243741;28;20130;-88
2021/12/04 13:54:02;;;;;;;12.68;5.15;;;;;;;;;;6240145;28;20021;-88
2021/12/04 13:57:06;;;;;;;11.73;5.10;;;;;;;;;;6235615;28;20017;-88
2021/12/04 14:00:10;;;;;;;15.95;5.40;;;;;;;;;;6246387;28;20206;-88
2021/12/04 14:03:11;;;;;;;12.52;3.40;;;;;;;;;;6231585;28;20010;-88
2021/12/04 14:06:13;;;;;;;7.65;3.13;;;;;;;;;;6235310;28;20026;-88
2021/12/04 14:09:14;;;;;;;11.95;3.45;;;;;;;;;;6233034;28;20022;-88
2021/12/04 14:12:15;;;;;;;9.98;4.25;;;;;;;;;;6240822;28;20461;-88
2021/12/04 14:15:16;;;;;;;8.32;4.05;;;;;;;;;;6240114;28;20036;-88
2021/12/04 14:18:18;;;;;;;11.73;5.20;;;;;;;;;;6238168;28;20030;-88
2021/12/04 14:21:19;;;;;;;14.23;6.75;;;;;;;;;;6230544;28;20010;-88
2021/12/04 14:24:23;;;;;;;8.65;4.97;;;;;;;;;;6228908;28;20045;-88
2021/12/04 14:27:25;;;;;;;8.02;4.63;;;;;;;;;;6232472;28;20021;-89
2021/12/04 14:30:33;;;;;;;7.97;3.95;;;;;;;;;;6241926;28;20120;-88
2021/12/04 14:33:35;;;;;;;12.50;6.90;;;;;;;;;;6240333;28;20021;-88
2021/12/04 14:36:36;;;;;;;5.63;3.55;;;;;;;;;;6230394;28;20032;-88
2021/12/04 14:39:37;;;;;;;18.52;8.25;;;;;;;;;;6246772;28;20108;-88
2021/12/04 14:42:38;;;;;;;21.07;9.60;;;;;;;;;;6244177;28;20079;-88
2021/12/04 14:45:39;;;;;;;27.95;13.23;;;;;;;;;;6232619;28;20009;-88
2021/12/04 14:48:48;;;;;;;24.30;7.90;;;;;;;;;;6238967;28;20013;-88
2021/12/04 14:51:49;;;;;;;18.30;5.82;;;;;;;;;;6233903;28;20056;-88
2021/12/04 14:54:50;;;;;;;18.40;8.60;;;;;;;;;;6232929;28;20033;-88
2021/12/04 14:57:50;;;;;;;21.95;7.95;;;;;;;;;;6239968;28;20112;-88
2021/12/04 15:00:56;;;;;;;27.55;10.50;;;;;;;;;;6243398;28;20032;-88
2021/12/04 15:03:59;;;;;;;12.38;3.88;;;;;;;;;;6234379;28;20194;-88
2021/12/04 15:06:59;;;;;;;21.77;7.07;;;;;;;;;;6252702;28;20526;-88
2021/12/04 15:10:41;;;;;;;23.52;8.50;;;;;;;;;;6244966;28;20054;-89
2021/12/04 15:13:46;;;;;;;20.83;7.88;;;;;;;;;;6223237;28;20083;-89
2021/12/04 15:16:49;;;;;;;15.23;8.18;;;;;;;;;;6238487;28;20029;-89
2021/12/04 15:19:53;;;;;;;34.35;16.50;;;;;;;;;;6225234;28;20444;-89
2021/12/04 15:22:57;;;;;;;135.02;48.40;;;;;;;;;;6234977;28;20541;-87
2021/12/04 15:26:06;;;;;;;21.42;9.18;;;;;;;;;;6230481;28;20500;-87
2021/12/04 15:29:14;;;;;;;32.80;10.73;;;;;;;;;;6231254;28;20037;-87
2021/12/04 15:32:16;;;;;;;28.65;12.35;;;;;;;;;;6246461;28;20408;-87
2021/12/04 15:35:41;;;;;;;42.28;14.20;;;;;;;;;;6236476;28;20051;-87
2021/12/04 15:38:47;;;;;;;149.00;53.53;;;;;;;;;;6232723;28;20144;-87
2021/12/04 15:42:12;;;;;;;163.05;54.67;;;;;;;;;;6240621;28;20033;-87
2021/12/04 15:55:20;;;;;;;52.45;23.83;;;;;;;;;;6229026;28;20018;-88
2021/12/04 15:58:21;;;;;;;50.08;20.52;;;;;;;;;;6237650;28;20028;-87
2021/12/04 16:01:26;;;;;;;30.30;15.93;;;;;;;;;;6230886;28;20022;-88
2021/12/04 16:04:30;;;;;;;31.33;13.73;;;;;;;;;;6230165;28;20374;-88
2021/12/04 16:07:32;;;;;;;35.03;14.88;;;;;;;;;;6234511;28;20025;-87
2021/12/04 16:10:34;;;;;;;33.03;14.82;;;;;;;;;;6237281;28;20018;-88
2021/12/04 16:13:35;;;;;;;29.35;15.65;;;;;;;;;;6236227;28;20048;-87
2021/12/04 16:16:40;;;;;;;23.55;12.73;;;;;;;;;;6240348;28;20473;-88
2021/12/04 16:19:43;;;;;;;22.38;11.40;;;;;;;;;;6239136;28;20022;-87
2021/12/04 16:22:45;;;;;;;22.90;11.20;;;;;;;;;;6235674;28;20026;-88
2021/12/04 16:25:48;;;;;;;22.83;9.85;;;;;;;;;;6231489;28;20486;-89
2021/12/04 16:38:34;;;;;;;19.73;8.75;;;;;;;;;;6234890;28;20026;-87
2021/12/04 16:41:35;;;;;;;26.98;10.63;;;;;;;;;;6237351;28;20547;-88
2021/12/04 16:44:35;;;;;;;17.65;8.45;;;;;;;;;;6229209;28;20033;-88
2021/12/04 16:47:43;;;;;;;18.38;8.13;;;;;;;;;;6238098;28;20025;-88
2021/12/04 17:00:21;;;;;;;20.25;8.35;;;;;;;;;;6238608;28;20474;-88
2021/12/04 17:03:22;;;;;;;26.60;11.05;;;;;;;;;;6241896;28;20025;-88
2021/12/04 17:06:23;;;;;;;21.65;10.45;;;;;;;;;;6235974;28;20101;-88
2021/12/04 17:09:23;;;;;;;29.75;14.38;;;;;;;;;;6241138;28;20392;-88
2021/12/04 17:12:24;;;;;;;45.80;21.33;;;;;;;;;;6242796;28;20029;-89
2021/12/04 17:15:24;;;;;;;63.55;30.73;;;;;;;;;;6239346;28;20533;-89
2021/12/04 17:18:26;;;;;;;48.60;22.90;;;;;;;;;;6237316;28;20473;-88
2021/12/04 17:21:28;;;;;;;43.05;19.80;;;;;;;;;;6236377;28;20425;-88
2021/12/04 17:24:30;;;;;;;37.38;18.25;;;;;;;;;;6243069;28;20022;-88
2021/12/04 17:27:30;;;;;;;;;;;;;;;;;;6251271;28;20013;-88
2021/12/04 17:30:30;;;;;;;25.85;11.88;;;;;;;;;;6241977;28;20256;-88
2021/12/04 17:33:31;;;;;;;28.85;13.25;;;;;;;;;;6236409;28;20026;-88
2021/12/04 17:36:32;;;;;;;27.98;13.38;;;;;;;;;;6238614;28;20537;-88
2021/12/04 17:39:32;;;;;;;29.73;12.70;;;;;;;;;;6229798;28;20101;-89
2021/12/04 17:42:37;;;;;;;27.50;13.70;;;;;;;;;;6230751;28;20020;-89
2021/12/04 17:45:37;;;;;;;36.80;16.45;;;;;;;;;;6228876;28;20028;-89
2021/12/04 17:48:38;;;;;;;31.23;13.30;;;;;;;;;;6240625;28;20036;-89
2021/12/04 17:51:39;;;;;;;18.20;9.73;;;;;;;;;;6223164;28;20431;-88
2021/12/04 17:54:39;;;;;;;21.95;9.40;;;;;;;;;;6221284;28;20087;-89
2021/12/04 17:57:41;;;;;;;26.38;11.55;;;;;;;;;;6223135;28;20501;-89
2021/12/04 18:00:46;;;;;;;25.15;13.20;;;;;;;;;;6226419;28;20053;-89
2021/12/04 18:03:47;;;;;;;30.67;14.27;;;;;;;;;;6224633;28;20025;-89
2021/12/04 18:06:48;;;;;;;40.60;17.03;;;;;;;;;;6225373;28;20025;-89
2021/12/04 18:09:50;;;;;;;39.70;17.90;;;;;;;;;;6226614;28;20437;-89
2021/12/04 18:12:53;;;;;;;43.92;18.23;;;;;;;;;;6226155;28;20032;-89
2021/12/04 18:15:58;;;;;;;34.90;13.80;;;;;;;;;;6227643;28;20381;-89
2021/12/04 18:18:59;;;;;;;21.58;10.40;;;;;;;;;;6242291;28;20033;-89
2021/12/04 18:22:00;;;;;;;29.83;11.40;;;;;;;;;;6228506;28;20091;-89
2021/12/04 18:25:02;;;;;;;21.48;10.80;;;;;;;;;;6228876;28;20049;-89
2021/12/04 18:28:03;;;;;;;27.17;10.63;;;;;;;;;;6228380;28;20021;-89
2021/12/04 18:31:03;;;;;;;23.48;10.52;;;;;;;;;;6228425;28;20068;-89
2021/12/04 18:34:05;;;;;;;23.58;10.15;;;;;;;;;;6227663;28;20089;-89
2021/12/04 18:37:06;;;;;;;74.85;28.60;;;;;;;;;;6232428;28;20052;-89
2021/12/04 18:40:08;;;;;;;39.53;19.25;;;;;;;;;;6224292;28;20872;-89
2021/12/04 18:43:11;;;;;;;33.65;14.18;;;;;;;;;;6225896;28;20083;-89
2021/12/04 18:46:15;;;;;;;27.25;13.05;;;;;;;;;;6221747;28;20035;-89
2021/12/04 18:49:15;;;;;;;34.83;13.23;;;;;;;;;;6238479;28;20061;-90
2021/12/04 18:52:15;;;;;;;34.75;14.40;;;;;;;;;;6223208;28;20109;-89
2021/12/04 18:55:16;;;;;;;33.92;13.48;;;;;;;;;;6223036;28;20112;-89
2021/12/04 18:58:16;;;;;;;32.90;14.18;;;;;;;;;;6223439;28;20022;-90
2021/12/04 19:01:17;;;;;;;37.70;13.75;;;;;;;;;;6225225;28;20166;-90
2021/12/04 19:04:17;;;;;;;32.88;13.48;;;;;;;;;;6223071;28;20026;-89
2021/12/04 19:07:18;;;;;;;26.95;12.90;;;;;;;;;;6225159;28;20105;-89
2021/12/04 19:10:19;;;;;;;29.65;12.65;;;;;;;;;;6224764;28;20034;-89
2021/12/04 19:13:20;;;;;;;41.13;17.92;;;;;;;;;;6225198;28;20048;-89
2021/12/04 19:16:21;;;;;;;57.77;23.23;;;;;;;;;;6226382;28;20470;-89
2021/12/04 19:19:22;;;;;;;43.63;20.13;;;;;;;;;;6226763;28;20291;-89
2021/12/04 19:22:22;;;;;;;44.65;18.45;;;;;;;;;;6224557;28;20053;-89
2021/12/04 19:25:25;;;;;;;39.53;17.20;;;;;;;;;;6226413;28;20068;-89
2021/12/04 19:28:25;;;;;;;34.85;13.60;;;;;;;;;;6225155;28;20022;-89
2021/12/04 19:31:29;;;;;;;27.65;14.60;;;;;;;;;;6223375;28;20061;-89
2021/12/04 19:34:52;;;;;;;22.95;11.73;;;;;;;;;;6224962;28;20486;-89
2021/12/04 19:51:10;;;;;;;22.50;9.48;;;;;;;;;;6228512;28;20046;-89
2021/12/04 19:54:21;;;;;;;24.13;10.93;;;;;;;;;;6229574;28;20125;-89
2021/12/04 19:57:30;;;;;;;27.10;12.30;;;;;;;;;;6228935;28;20033;-89
2021/12/04 20:00:37;;;;;;;24.60;11.10;;;;;;;;;;6229600;28;20207;-89
2021/12/04 20:07:13;;;;;;;28.30;12.27;;;;;;;;;;6231601;28;20021;-89
2021/12/04 20:13:33;;;;;;;24.92;12.70;;;;;;;;;;6229638;28;20115;-89
2021/12/04 20:16:34;;;;;;;24.98;12.10;;;;;;;;;;6229180;28;20405;-89
2021/12/04 20:19:34;;;;;;;27.20;11.07;;;;;;;;;;6230608;28;20076;-89
2021/12/04 20:22:35;;;;;;;29.10;12.65;;;;;;;;;;6239540;28;20077;-89
2021/12/04 20:25:43;;;;;;;27.55;12.75;;;;;;;;;;6239699;28;20036;-89
2021/12/04 21:50:24;;;;;;;67.18;27.77;;;;;;;;;;6237707;28;20596;-89
2021/12/04 21:53:25;;;;;;;66.60;27.35;;;;;;;;;;6240115;28;20041;-89
2021/12/04 21:56:56;;;;;;;68.22;26.40;;;;;;;;;;6232627;28;20021;-89
2021/12/04 22:09:48;;;;;;;55.83;22.05;;;;;;;;;;6235556;28;20540;-89
2021/12/04 22:13:07;;;;;;;49.90;20.55;;;;;;;;;;6237592;28;20030;-89
2021/12/04 22:19:43;;;;;;;53.17;20.33;;;;;;;;;;6234398;28;20025;-89
2021/12/04 22:23:26;;;;;;;42.65;18.63;;;;;;;;;;6250648;28;20555;-89
2021/12/04 22:59:12;;;;;;;69.55;27.83;;;;;;;;;;6234624;28;20104;-89
2021/12/04 23:02:16;;;;;;;58.28;24.00;;;;;;;;;;6231653;28;20027;-89
2021/12/04 23:12:10;;;;;;;64.72;26.65;;;;;;;;;;6234589;28;20013;-89
2021/12/04 23:15:15;;;;;;;61.20;28.27;;;;;;;;;;6237784;28;20163;-89
2021/12/04 23:34:52;;;;;;;61.60;25.35;;;;;;;;;;6236805;28;20029;-89
2021/12/04 23:44:44;;;;;;;52.53;22.08;;;;;;;;;;6235964;28;20025;-89
2021/12/04 23:47:53;;;;;;;42.03;18.92;;;;;;;;;;6230030;28;20029;-89
